KLSV/LSV METAR and TAF weather

Enter ICAO airport designator
Station Type Date Time Source
KLSV METAR 2020/06/06 12:58 UTC NOAA

KLSV 061258Z AUTO 16022KT 10SM CLR 22/08 A2962 RMK AO2 PK WND 14028/48 SLP006 T02210079 $


Station Type Date Time Source
KLSV Decoded METAR 2020/06/06 12:58 UTC NOAA

Nellis Air Force Base, NV, United States (KLSV) 36-14N 115-02W
Jun 06, 2020 - 08:58 AM EDT / 2020.06.06 1258 UTC
Wind: from the SSE (160 degrees) at 25 MPH (22 KT):0
Visibility: 10 mile(s):0
Sky conditions: clear
Temperature: 71.8 F (22.1 C)
Dew Point: 46.2 F (7.9 C)
Relative Humidity: 40%
Pressure (altimeter): 29.62 in. Hg (1003 hPa)
ob: KLSV 061258Z AUTO 16022KT 10SM CLR 22/08 A2962 RMK AO2 PK WND 14028/48 SLP006 T02210079
cycle: 13

Station Type Date Time Source
KLSV TAF 2020/06/06 10:57 UTC NOAA

TAF TAF
AMD KLSV 060950Z 0610/0713 16012G18KT 9999 FEW250 QNH2954INS
TEMPO 0610/0615 16015G25KT 520009
BECMG 0614/0615 19015G28KT 9999 FEW250 520009 QNH2962INS
BECMG 0703/0704 22012KT 9999 FEW250 QNH2965INS TX31/0622Z TN24/0613Z

Example: see airport list